sensor_id;sensor_type;location;lat;lon;timestamp;P1;durP1;ratioP1;P2;durP2;ratioP2
8291;SDS011;4184;42.724;23.308;2022-09-25T00:00:42;11.83;;;8.97;;
8291;SDS011;4184;42.724;23.308;2022-09-25T00:03:11;10.63;;;7.80;;
8291;SDS011;4184;42.724;23.308;2022-09-25T00:05:40;9.77;;;7.30;;
8291;SDS011;4184;42.724;23.308;2022-09-25T00:08:10;11.67;;;8.30;;
8291;SDS011;4184;42.724;23.308;2022-09-25T00:10:39;9.77;;;7.70;;
8291;SDS011;4184;42.724;23.308;2022-09-25T00:13:07;12.57;;;7.53;;
8291;SDS011;4184;42.724;23.308;2022-09-25T00:15:36;10.60;;;7.90;;
8291;SDS011;4184;42.724;23.308;2022-09-25T00:18:04;9.07;;;7.60;;
8291;SDS011;4184;42.724;23.308;2022-09-25T00:20:31;10.10;;;7.67;;
8291;SDS011;4184;42.724;23.308;2022-09-25T00:22:58;9.43;;;7.00;;
8291;SDS011;4184;42.724;23.308;2022-09-25T00:25:26;8.77;;;7.10;;
8291;SDS011;4184;42.724;23.308;2022-09-25T00:27:54;9.10;;;6.77;;
8291;SDS011;4184;42.724;23.308;2022-09-25T00:30:22;9.90;;;6.93;;
8291;SDS011;4184;42.724;23.308;2022-09-25T00:32:51;10.37;;;7.43;;
8291;SDS011;4184;42.724;23.308;2022-09-25T00:35:18;8.87;;;6.37;;
8291;SDS011;4184;42.724;23.308;2022-09-25T00:37:46;8.20;;;7.33;;
8291;SDS011;4184;42.724;23.308;2022-09-25T00:40:13;10.67;;;7.33;;
8291;SDS011;4184;42.724;23.308;2022-09-25T00:42:41;10.30;;;7.30;;
8291;SDS011;4184;42.724;23.308;2022-09-25T00:45:12;8.63;;;6.80;;
8291;SDS011;4184;42.724;23.308;2022-09-25T00:50:32;9.37;;;6.47;;
8291;SDS011;4184;42.724;23.308;2022-09-25T00:53:04;8.93;;;6.70;;
8291;SDS011;4184;42.724;23.308;2022-09-25T00:55:34;8.10;;;6.07;;
8291;SDS011;4184;42.724;23.308;2022-09-25T00:58:03;9.47;;;6.33;;
8291;SDS011;4184;42.724;23.308;2022-09-25T01:00:32;7.17;;;6.30;;
8291;SDS011;4184;42.724;23.308;2022-09-25T01:03:00;10.00;;;6.07;;
8291;SDS011;4184;42.724;23.308;2022-09-25T01:05:32;7.80;;;6.47;;
8291;SDS011;4184;42.724;23.308;2022-09-25T01:08:03;8.13;;;6.27;;
8291;SDS011;4184;42.724;23.308;2022-09-25T01:10:34;7.40;;;6.57;;
8291;SDS011;4184;42.724;23.308;2022-09-25T01:13:02;7.60;;;6.10;;
8291;SDS011;4184;42.724;23.308;2022-09-25T01:15:30;6.70;;;6.00;;
8291;SDS011;4184;42.724;23.308;2022-09-25T01:18:11;9.27;;;6.40;;
8291;SDS011;4184;42.724;23.308;2022-09-25T01:21:05;8.60;;;5.80;;
8291;SDS011;4184;42.724;23.308;2022-09-25T01:23:52;8.53;;;6.33;;
8291;SDS011;4184;42.724;23.308;2022-09-25T01:27:01;9.53;;;6.17;;
8291;SDS011;4184;42.724;23.308;2022-09-25T01:29:55;8.90;;;6.57;;
8291;SDS011;4184;42.724;23.308;2022-09-25T01:32:32;7.87;;;6.33;;
8291;SDS011;4184;42.724;23.308;2022-09-25T01:35:05;7.43;;;5.87;;
8291;SDS011;4184;42.724;23.308;2022-09-25T01:37:39;7.00;;;5.70;;
8291;SDS011;4184;42.724;23.308;2022-09-25T01:40:12;9.83;;;6.53;;
8291;SDS011;4184;42.724;23.308;2022-09-25T01:42:45;8.93;;;6.53;;
8291;SDS011;4184;42.724;23.308;2022-09-25T01:45:19;8.43;;;6.40;;
8291;SDS011;4184;42.724;23.308;2022-09-25T01:47:52;8.10;;;6.37;;
8291;SDS011;4184;42.724;23.308;2022-09-25T01:50:24;7.27;;;6.07;;
8291;SDS011;4184;42.724;23.308;2022-09-25T01:52:57;8.10;;;6.93;;
8291;SDS011;4184;42.724;23.308;2022-09-25T01:55:27;8.53;;;6.47;;
8291;SDS011;4184;42.724;23.308;2022-09-25T01:58:01;8.20;;;6.37;;
8291;SDS011;4184;42.724;23.308;2022-09-25T02:00:37;9.73;;;6.70;;
8291;SDS011;4184;42.724;23.308;2022-09-25T02:03:07;9.10;;;6.97;;
8291;SDS011;4184;42.724;23.308;2022-09-25T02:05:40;8.30;;;6.37;;
8291;SDS011;4184;42.724;23.308;2022-09-25T02:08:11;9.87;;;6.70;;
8291;SDS011;4184;42.724;23.308;2022-09-25T02:10:43;7.83;;;6.90;;
8291;SDS011;4184;42.724;23.308;2022-09-25T02:13:17;8.60;;;6.07;;
8291;SDS011;4184;42.724;23.308;2022-09-25T02:15:49;9.67;;;7.47;;
8291;SDS011;4184;42.724;23.308;2022-09-25T02:18:20;7.87;;;6.53;;
8291;SDS011;4184;42.724;23.308;2022-09-25T02:21:10;8.53;;;6.60;;
8291;SDS011;4184;42.724;23.308;2022-09-25T02:23:46;8.80;;;6.80;;
8291;SDS011;4184;42.724;23.308;2022-09-25T02:26:19;7.93;;;6.10;;
8291;SDS011;4184;42.724;23.308;2022-09-25T02:28:50;10.10;;;6.70;;
8291;SDS011;4184;42.724;23.308;2022-09-25T02:31:20;8.63;;;6.50;;
8291;SDS011;4184;42.724;23.308;2022-09-25T02:33:54;8.80;;;6.60;;
8291;SDS011;4184;42.724;23.308;2022-09-25T02:36:22;7.60;;;6.37;;
8291;SDS011;4184;42.724;23.308;2022-09-25T02:38:49;9.10;;;6.97;;
8291;SDS011;4184;42.724;23.308;2022-09-25T02:41:22;11.00;;;6.70;;
8291;SDS011;4184;42.724;23.308;2022-09-25T02:44:03;10.23;;;6.93;;
8291;SDS011;4184;42.724;23.308;2022-09-25T02:46:41;9.07;;;7.30;;
8291;SDS011;4184;42.724;23.308;2022-09-25T02:49:19;11.77;;;7.30;;
8291;SDS011;4184;42.724;23.308;2022-09-25T02:51:56;12.90;;;7.43;;
8291;SDS011;4184;42.724;23.308;2022-09-25T02:54:30;9.30;;;6.67;;
8291;SDS011;4184;42.724;23.308;2022-09-25T02:57:04;9.87;;;7.70;;
8291;SDS011;4184;42.724;23.308;2022-09-25T02:59:38;10.47;;;7.57;;
8291;SDS011;4184;42.724;23.308;2022-09-25T03:02:12;8.10;;;6.73;;
8291;SDS011;4184;42.724;23.308;2022-09-25T03:04:42;8.90;;;7.43;;
8291;SDS011;4184;42.724;23.308;2022-09-25T03:07:12;8.27;;;6.53;;
8291;SDS011;4184;42.724;23.308;2022-09-25T03:09:40;9.10;;;7.30;;
8291;SDS011;4184;42.724;23.308;2022-09-25T03:12:11;8.97;;;7.10;;
8291;SDS011;4184;42.724;23.308;2022-09-25T03:14:39;7.50;;;6.80;;
8291;SDS011;4184;42.724;23.308;2022-09-25T03:17:07;8.10;;;6.87;;
8291;SDS011;4184;42.724;23.308;2022-09-25T03:19:38;7.63;;;6.20;;
8291;SDS011;4184;42.724;23.308;2022-09-25T03:22:05;9.63;;;6.60;;
8291;SDS011;4184;42.724;23.308;2022-09-25T03:24:33;9.43;;;6.67;;
8291;SDS011;4184;42.724;23.308;2022-09-25T03:27:02;9.13;;;6.33;;
8291;SDS011;4184;42.724;23.308;2022-09-25T03:29:30;11.53;;;7.13;;
8291;SDS011;4184;42.724;23.308;2022-09-25T03:31:57;9.17;;;6.53;;
8291;SDS011;4184;42.724;23.308;2022-09-25T03:34:25;11.47;;;6.37;;
8291;SDS011;4184;42.724;23.308;2022-09-25T03:36:54;10.33;;;6.57;;
8291;SDS011;4184;42.724;23.308;2022-09-25T03:39:21;10.33;;;6.17;;
8291;SDS011;4184;42.724;23.308;2022-09-25T03:41:49;12.07;;;6.43;;
8291;SDS011;4184;42.724;23.308;2022-09-25T03:44:17;9.27;;;6.47;;
8291;SDS011;4184;42.724;23.308;2022-09-25T03:46:44;8.73;;;6.43;;
8291;SDS011;4184;42.724;23.308;2022-09-25T03:49:12;10.50;;;6.70;;
8291;SDS011;4184;42.724;23.308;2022-09-25T03:51:39;10.33;;;6.20;;
8291;SDS011;4184;42.724;23.308;2022-09-25T03:54:08;11.13;;;6.30;;
8291;SDS011;4184;42.724;23.308;2022-09-25T03:56:36;8.43;;;6.10;;
8291;SDS011;4184;42.724;23.308;2022-09-25T03:59:04;7.80;;;6.47;;
8291;SDS011;4184;42.724;23.308;2022-09-25T04:01:31;9.27;;;5.97;;
8291;SDS011;4184;42.724;23.308;2022-09-25T04:04:01;8.37;;;5.97;;
8291;SDS011;4184;42.724;23.308;2022-09-25T04:06:28;7.83;;;6.23;;
8291;SDS011;4184;42.724;23.308;2022-09-25T04:08:56;8.63;;;6.47;;
8291;SDS011;4184;42.724;23.308;2022-09-25T04:11:24;10.23;;;6.70;;
8291;SDS011;4184;42.724;23.308;2022-09-25T04:13:52;8.63;;;6.03;;
8291;SDS011;4184;42.724;23.308;2022-09-25T04:16:21;10.20;;;5.93;;
8291;SDS011;4184;42.724;23.308;2022-09-25T04:18:48;8.87;;;6.13;;
8291;SDS011;4184;42.724;23.308;2022-09-25T04:21:16;8.87;;;7.00;;
8291;SDS011;4184;42.724;23.308;2022-09-25T04:23:43;8.03;;;6.23;;
8291;SDS011;4184;42.724;23.308;2022-09-25T04:26:33;12.20;;;6.97;;
8291;SDS011;4184;42.724;23.308;2022-09-25T04:29:00;12.73;;;7.50;;
8291;SDS011;4184;42.724;23.308;2022-09-25T04:31:28;9.67;;;7.63;;
8291;SDS011;4184;42.724;23.308;2022-09-25T04:33:56;10.23;;;7.77;;
8291;SDS011;4184;42.724;23.308;2022-09-25T04:36:23;9.77;;;6.83;;
8291;SDS011;4184;42.724;23.308;2022-09-25T04:38:50;11.67;;;7.43;;
8291;SDS011;4184;42.724;23.308;2022-09-25T04:41:18;8.37;;;6.80;;
8291;SDS011;4184;42.724;23.308;2022-09-25T04:43:46;16.83;;;7.27;;
8291;SDS011;4184;42.724;23.308;2022-09-25T04:46:14;7.97;;;6.60;;
8291;SDS011;4184;42.724;23.308;2022-09-25T04:48:43;8.87;;;6.40;;
8291;SDS011;4184;42.724;23.308;2022-09-25T04:51:11;11.67;;;7.27;;
8291;SDS011;4184;42.724;23.308;2022-09-25T04:53:39;9.53;;;6.87;;
8291;SDS011;4184;42.724;23.308;2022-09-25T04:56:07;8.80;;;7.07;;
8291;SDS011;4184;42.724;23.308;2022-09-25T04:58:36;9.10;;;7.27;;
8291;SDS011;4184;42.724;23.308;2022-09-25T05:01:06;11.10;;;7.43;;
8291;SDS011;4184;42.724;23.308;2022-09-25T05:03:34;7.13;;;6.07;;
8291;SDS011;4184;42.724;23.308;2022-09-25T05:06:02;7.57;;;6.77;;
8291;SDS011;4184;42.724;23.308;2022-09-25T05:08:30;8.37;;;6.53;;
8291;SDS011;4184;42.724;23.308;2022-09-25T05:10:57;9.50;;;6.73;;
8291;SDS011;4184;42.724;23.308;2022-09-25T05:13:25;10.27;;;7.17;;
8291;SDS011;4184;42.724;23.308;2022-09-25T05:15:53;8.50;;;6.40;;
8291;SDS011;4184;42.724;23.308;2022-09-25T05:18:22;8.43;;;6.40;;
8291;SDS011;4184;42.724;23.308;2022-09-25T05:20:51;11.60;;;6.97;;
8291;SDS011;4184;42.724;23.308;2022-09-25T05:23:19;8.40;;;6.83;;
8291;SDS011;4184;42.724;23.308;2022-09-25T05:25:51;9.33;;;6.57;;
8291;SDS011;4184;42.724;23.308;2022-09-25T05:28:20;9.10;;;6.03;;
8291;SDS011;4184;42.724;23.308;2022-09-25T05:30:49;9.10;;;6.00;;
8291;SDS011;4184;42.724;23.308;2022-09-25T05:33:16;9.87;;;6.10;;
8291;SDS011;4184;42.724;23.308;2022-09-25T05:35:45;7.47;;;5.87;;
8291;SDS011;4184;42.724;23.308;2022-09-25T05:38:13;8.10;;;5.77;;
8291;SDS011;4184;42.724;23.308;2022-09-25T05:40:41;13.83;;;6.00;;
8291;SDS011;4184;42.724;23.308;2022-09-25T05:43:08;19.60;;;6.47;;
8291;SDS011;4184;42.724;23.308;2022-09-25T05:45:36;8.23;;;5.63;;
8291;SDS011;4184;42.724;23.308;2022-09-25T05:48:04;11.13;;;5.80;;
8291;SDS011;4184;42.724;23.308;2022-09-25T05:50:33;10.33;;;5.17;;
8291;SDS011;4184;42.724;23.308;2022-09-25T05:53:03;8.37;;;5.20;;
8291;SDS011;4184;42.724;23.308;2022-09-25T05:55:31;10.63;;;5.97;;
8291;SDS011;4184;42.724;23.308;2022-09-25T05:58:00;9.40;;;5.07;;
8291;SDS011;4184;42.724;23.308;2022-09-25T06:00:28;8.17;;;4.90;;
8291;SDS011;4184;42.724;23.308;2022-09-25T06:02:57;7.07;;;4.73;;
8291;SDS011;4184;42.724;23.308;2022-09-25T06:05:24;6.70;;;4.70;;
8291;SDS011;4184;42.724;23.308;2022-09-25T06:07:52;7.43;;;5.50;;
8291;SDS011;4184;42.724;23.308;2022-09-25T06:10:21;9.73;;;5.20;;
8291;SDS011;4184;42.724;23.308;2022-09-25T06:12:50;6.00;;;5.30;;
8291;SDS011;4184;42.724;23.308;2022-09-25T06:15:22;7.67;;;5.30;;
8291;SDS011;4184;42.724;23.308;2022-09-25T06:17:51;13.00;;;6.47;;
8291;SDS011;4184;42.724;23.308;2022-09-25T06:20:19;8.93;;;6.00;;
8291;SDS011;4184;42.724;23.308;2022-09-25T06:22:50;7.07;;;5.27;;
8291;SDS011;4184;42.724;23.308;2022-09-25T06:25:18;9.63;;;6.00;;
8291;SDS011;4184;42.724;23.308;2022-09-25T06:27:47;7.07;;;6.00;;
8291;SDS011;4184;42.724;23.308;2022-09-25T06:30:17;5.70;;;4.77;;
8291;SDS011;4184;42.724;23.308;2022-09-25T06:32:46;5.60;;;4.93;;
8291;SDS011;4184;42.724;23.308;2022-09-25T06:35:15;8.30;;;5.10;;
8291;SDS011;4184;42.724;23.308;2022-09-25T06:37:43;6.90;;;4.83;;
8291;SDS011;4184;42.724;23.308;2022-09-25T06:40:10;5.50;;;4.63;;
8291;SDS011;4184;42.724;23.308;2022-09-25T06:42:38;6.43;;;5.00;;
8291;SDS011;4184;42.724;23.308;2022-09-25T06:45:08;6.80;;;5.73;;
8291;SDS011;4184;42.724;23.308;2022-09-25T06:47:36;8.33;;;6.10;;
8291;SDS011;4184;42.724;23.308;2022-09-25T06:50:03;6.67;;;5.90;;
8291;SDS011;4184;42.724;23.308;2022-09-25T06:52:32;6.60;;;5.37;;
8291;SDS011;4184;42.724;23.308;2022-09-25T06:55:06;7.17;;;5.77;;
8291;SDS011;4184;42.724;23.308;2022-09-25T06:57:34;6.10;;;4.87;;
8291;SDS011;4184;42.724;23.308;2022-09-25T07:00:02;10.37;;;5.17;;
8291;SDS011;4184;42.724;23.308;2022-09-25T07:02:32;5.67;;;4.93;;
8291;SDS011;4184;42.724;23.308;2022-09-25T07:05:17;6.27;;;5.07;;
8291;SDS011;4184;42.724;23.308;2022-09-25T07:07:45;10.47;;;5.27;;
8291;SDS011;4184;42.724;23.308;2022-09-25T07:10:12;19.97;;;6.67;;
8291;SDS011;4184;42.724;23.308;2022-09-25T07:12:40;24.23;;;7.17;;
8291;SDS011;4184;42.724;23.308;2022-09-25T07:15:08;16.93;;;6.47;;
8291;SDS011;4184;42.724;23.308;2022-09-25T07:17:41;12.53;;;6.13;;
8291;SDS011;4184;42.724;23.308;2022-09-25T07:20:09;11.00;;;5.43;;
8291;SDS011;4184;42.724;23.308;2022-09-25T07:22:39;14.33;;;6.30;;
8291;SDS011;4184;42.724;23.308;2022-09-25T07:25:08;12.17;;;6.10;;
8291;SDS011;4184;42.724;23.308;2022-09-25T07:27:36;6.97;;;4.90;;
8291;SDS011;4184;42.724;23.308;2022-09-25T07:30:04;7.87;;;4.90;;
8291;SDS011;4184;42.724;23.308;2022-09-25T07:32:33;13.57;;;5.63;;
8291;SDS011;4184;42.724;23.308;2022-09-25T07:35:02;8.63;;;4.57;;
8291;SDS011;4184;42.724;23.308;2022-09-25T07:37:30;7.37;;;5.10;;
8291;SDS011;4184;42.724;23.308;2022-09-25T07:39:58;6.03;;;4.77;;
8291;SDS011;4184;42.724;23.308;2022-09-25T07:42:25;6.47;;;4.60;;
8291;SDS011;4184;42.724;23.308;2022-09-25T07:44:53;14.77;;;5.13;;
8291;SDS011;4184;42.724;23.308;2022-09-25T07:47:20;6.80;;;4.47;;
8291;SDS011;4184;42.724;23.308;2022-09-25T07:49:48;4.77;;;3.83;;
8291;SDS011;4184;42.724;23.308;2022-09-25T07:52:17;5.30;;;3.70;;
8291;SDS011;4184;42.724;23.308;2022-09-25T07:54:44;6.20;;;3.87;;
8291;SDS011;4184;42.724;23.308;2022-09-25T07:57:12;6.87;;;3.87;;
8291;SDS011;4184;42.724;23.308;2022-09-25T07:59:40;5.07;;;3.40;;
8291;SDS011;4184;42.724;23.308;2022-09-25T08:02:09;6.50;;;3.97;;
8291;SDS011;4184;42.724;23.308;2022-09-25T08:04:36;58.30;;;12.40;;
8291;SDS011;4184;42.724;23.308;2022-09-25T08:07:04;42.47;;;9.20;;
8291;SDS011;4184;42.724;23.308;2022-09-25T08:09:33;18.60;;;5.90;;
8291;SDS011;4184;42.724;23.308;2022-09-25T08:12:00;29.30;;;5.83;;
8291;SDS011;4184;42.724;23.308;2022-09-25T08:14:28;11.57;;;4.90;;
8291;SDS011;4184;42.724;23.308;2022-09-25T08:16:57;12.77;;;5.00;;
8291;SDS011;4184;42.724;23.308;2022-09-25T08:19:24;18.27;;;4.47;;
8291;SDS011;4184;42.724;23.308;2022-09-25T08:21:52;31.00;;;7.20;;
8291;SDS011;4184;42.724;23.308;2022-09-25T08:24:20;33.73;;;8.27;;
8291;SDS011;4184;42.724;23.308;2022-09-25T08:26:48;178.83;;;29.97;;
8291;SDS011;4184;42.724;23.308;2022-09-25T08:29:16;85.80;;;15.73;;
8291;SDS011;4184;42.724;23.308;2022-09-25T08:31:43;27.00;;;8.80;;
8291;SDS011;4184;42.724;23.308;2022-09-25T08:34:12;17.37;;;5.93;;
8291;SDS011;4184;42.724;23.308;2022-09-25T08:36:40;10.90;;;4.17;;
8291;SDS011;4184;42.724;23.308;2022-09-25T08:39:08;10.43;;;4.10;;
8291;SDS011;4184;42.724;23.308;2022-09-25T08:41:39;7.77;;;3.87;;
8291;SDS011;4184;42.724;23.308;2022-09-25T08:44:15;7.83;;;3.90;;
8291;SDS011;4184;42.724;23.308;2022-09-25T08:46:49;10.13;;;4.37;;
8291;SDS011;4184;42.724;23.308;2022-09-25T08:49:40;7.40;;;3.97;;
8291;SDS011;4184;42.724;23.308;2022-09-25T08:52:12;6.23;;;3.90;;
8291;SDS011;4184;42.724;23.308;2022-09-25T08:54:43;11.50;;;4.10;;
8291;SDS011;4184;42.724;23.308;2022-09-25T08:57:13;6.43;;;3.37;;
8291;SDS011;4184;42.724;23.308;2022-09-25T08:59:53;5.77;;;3.33;;
8291;SDS011;4184;42.724;23.308;2022-09-25T09:02:25;5.27;;;3.67;;
8291;SDS011;4184;42.724;23.308;2022-09-25T09:05:03;5.57;;;3.20;;
8291;SDS011;4184;42.724;23.308;2022-09-25T09:07:41;5.57;;;3.13;;
8291;SDS011;4184;42.724;23.308;2022-09-25T09:10:16;3.03;;;2.73;;
8291;SDS011;4184;42.724;23.308;2022-09-25T09:12:53;5.13;;;3.00;;
8291;SDS011;4184;42.724;23.308;2022-09-25T09:15:29;4.53;;;2.70;;
8291;SDS011;4184;42.724;23.308;2022-09-25T09:18:04;3.40;;;2.60;;
8291;SDS011;4184;42.724;23.308;2022-09-25T09:20:41;4.27;;;2.50;;
8291;SDS011;4184;42.724;23.308;2022-09-25T09:23:15;7.17;;;2.77;;
8291;SDS011;4184;42.724;23.308;2022-09-25T09:25:48;3.90;;;3.23;;
8291;SDS011;4184;42.724;23.308;2022-09-25T09:28:36;21.10;;;4.33;;
8291;SDS011;4184;42.724;23.308;2022-09-25T09:31:29;17.17;;;4.97;;
8291;SDS011;4184;42.724;23.308;2022-09-25T09:34:12;57.20;;;11.07;;
8291;SDS011;4184;42.724;23.308;2022-09-25T09:37:03;76.60;;;17.20;;
8291;SDS011;4184;42.724;23.308;2022-09-25T09:39:41;88.33;;;15.57;;
8291;SDS011;4184;42.724;23.308;2022-09-25T09:42:15;26.80;;;8.63;;
8291;SDS011;4184;42.724;23.308;2022-09-25T09:44:52;25.33;;;6.57;;
8291;SDS011;4184;42.724;23.308;2022-09-25T09:47:33;10.70;;;4.83;;
8291;SDS011;4184;42.724;23.308;2022-09-25T09:50:17;7.27;;;3.60;;
8291;SDS011;4184;42.724;23.308;2022-09-25T09:52:54;4.77;;;3.23;;
8291;SDS011;4184;42.724;23.308;2022-09-25T09:55:33;5.80;;;2.80;;
8291;SDS011;4184;42.724;23.308;2022-09-25T09:58:09;2.87;;;2.40;;
8291;SDS011;4184;42.724;23.308;2022-09-25T10:00:44;2.93;;;2.57;;
8291;SDS011;4184;42.724;23.308;2022-09-25T10:03:16;4.03;;;2.50;;
8291;SDS011;4184;42.724;23.308;2022-09-25T10:05:48;5.33;;;2.53;;
8291;SDS011;4184;42.724;23.308;2022-09-25T10:08:18;4.13;;;2.43;;
8291;SDS011;4184;42.724;23.308;2022-09-25T10:10:46;3.83;;;2.67;;
8291;SDS011;4184;42.724;23.308;2022-09-25T10:13:18;3.83;;;2.63;;
8291;SDS011;4184;42.724;23.308;2022-09-25T10:15:49;4.60;;;2.67;;
8291;SDS011;4184;42.724;23.308;2022-09-25T10:18:20;2.83;;;2.57;;
8291;SDS011;4184;42.724;23.308;2022-09-25T10:20:53;2.77;;;2.43;;
8291;SDS011;4184;42.724;23.308;2022-09-25T10:23:30;9.27;;;2.60;;
8291;SDS011;4184;42.724;23.308;2022-09-25T10:26:03;3.47;;;2.47;;
8291;SDS011;4184;42.724;23.308;2022-09-25T10:28:46;3.33;;;2.53;;
8291;SDS011;4184;42.724;23.308;2022-09-25T10:31:14;6.03;;;2.80;;
8291;SDS011;4184;42.724;23.308;2022-09-25T10:33:50;2.83;;;2.53;;
8291;SDS011;4184;42.724;23.308;2022-09-25T10:36:29;3.47;;;2.60;;
8291;SDS011;4184;42.724;23.308;2022-09-25T10:38:59;3.07;;;2.50;;
8291;SDS011;4184;42.724;23.308;2022-09-25T10:41:28;18.10;;;3.90;;
8291;SDS011;4184;42.724;23.308;2022-09-25T10:44:17;14.63;;;4.07;;
8291;SDS011;4184;42.724;23.308;2022-09-25T10:46:47;4.73;;;3.20;;
8291;SDS011;4184;42.724;23.308;2022-09-25T10:49:43;3.33;;;2.73;;
8291;SDS011;4184;42.724;23.308;2022-09-25T10:52:40;7.37;;;3.27;;
8291;SDS011;4184;42.724;23.308;2022-09-25T10:55:18;3.70;;;2.80;;
8291;SDS011;4184;42.724;23.308;2022-09-25T10:57:53;3.77;;;2.60;;
8291;SDS011;4184;42.724;23.308;2022-09-25T11:00:34;5.43;;;3.10;;
8291;SDS011;4184;42.724;23.308;2022-09-25T11:03:07;4.00;;;2.83;;
8291;SDS011;4184;42.724;23.308;2022-09-25T11:05:48;3.00;;;2.70;;
8291;SDS011;4184;42.724;23.308;2022-09-25T11:08:18;4.70;;;3.17;;
8291;SDS011;4184;42.724;23.308;2022-09-25T11:10:49;4.43;;;2.70;;
8291;SDS011;4184;42.724;23.308;2022-09-25T11:13:21;3.67;;;2.80;;
8291;SDS011;4184;42.724;23.308;2022-09-25T11:15:59;4.17;;;2.83;;
8291;SDS011;4184;42.724;23.308;2022-09-25T11:18:39;3.43;;;3.13;;
8291;SDS011;4184;42.724;23.308;2022-09-25T11:21:21;2.60;;;2.33;;
8291;SDS011;4184;42.724;23.308;2022-09-25T11:24:04;3.07;;;2.73;;
8291;SDS011;4184;42.724;23.308;2022-09-25T11:26:41;3.47;;;3.17;;
8291;SDS011;4184;42.724;23.308;2022-09-25T11:29:14;4.47;;;2.97;;
8291;SDS011;4184;42.724;23.308;2022-09-25T11:31:47;3.23;;;2.77;;
8291;SDS011;4184;42.724;23.308;2022-09-25T11:34:22;4.00;;;2.63;;
8291;SDS011;4184;42.724;23.308;2022-09-25T11:37:01;4.43;;;2.53;;
8291;SDS011;4184;42.724;23.308;2022-09-25T11:39:39;4.03;;;2.10;;
8291;SDS011;4184;42.724;23.308;2022-09-25T11:42:30;4.00;;;2.57;;
8291;SDS011;4184;42.724;23.308;2022-09-25T11:45:14;2.70;;;2.50;;
8291;SDS011;4184;42.724;23.308;2022-09-25T11:47:49;2.63;;;2.43;;
8291;SDS011;4184;42.724;23.308;2022-09-25T11:50:23;3.53;;;2.67;;
8291;SDS011;4184;42.724;23.308;2022-09-25T11:52:59;2.53;;;2.27;;
8291;SDS011;4184;42.724;23.308;2022-09-25T11:55:41;4.50;;;2.57;;
8291;SDS011;4184;42.724;23.308;2022-09-25T11:58:21;3.20;;;2.10;;
8291;SDS011;4184;42.724;23.308;2022-09-25T12:01:16;2.77;;;2.57;;
8291;SDS011;4184;42.724;23.308;2022-09-25T12:03:54;3.13;;;2.40;;
8291;SDS011;4184;42.724;23.308;2022-09-25T12:06:35;3.37;;;2.87;;
8291;SDS011;4184;42.724;23.308;2022-09-25T12:10:02;2.93;;;2.37;;
8291;SDS011;4184;42.724;23.308;2022-09-25T12:12:41;2.63;;;2.07;;
8291;SDS011;4184;42.724;23.308;2022-09-25T12:15:16;2.50;;;2.30;;
8291;SDS011;4184;42.724;23.308;2022-09-25T12:17:52;3.37;;;2.27;;
8291;SDS011;4184;42.724;23.308;2022-09-25T12:20:28;2.20;;;2.00;;
8291;SDS011;4184;42.724;23.308;2022-09-25T12:23:10;3.30;;;2.20;;
8291;SDS011;4184;42.724;23.308;2022-09-25T12:25:52;2.37;;;2.13;;
8291;SDS011;4184;42.724;23.308;2022-09-25T12:28:42;2.63;;;2.20;;
8291;SDS011;4184;42.724;23.308;2022-09-25T12:31:22;2.50;;;2.30;;
8291;SDS011;4184;42.724;23.308;2022-09-25T12:33:58;3.97;;;2.00;;
8291;SDS011;4184;42.724;23.308;2022-09-25T12:36:33;3.03;;;2.63;;
8291;SDS011;4184;42.724;23.308;2022-09-25T12:39:10;2.97;;;2.37;;
8291;SDS011;4184;42.724;23.308;2022-09-25T12:41:57;5.80;;;2.57;;
8291;SDS011;4184;42.724;23.308;2022-09-25T12:44:35;2.20;;;2.00;;
8291;SDS011;4184;42.724;23.308;2022-09-25T12:47:11;3.13;;;2.50;;
8291;SDS011;4184;42.724;23.308;2022-09-25T12:49:50;2.37;;;2.17;;
8291;SDS011;4184;42.724;23.308;2022-09-25T12:52:26;2.63;;;2.37;;
8291;SDS011;4184;42.724;23.308;2022-09-25T12:54:59;3.33;;;2.20;;
8291;SDS011;4184;42.724;23.308;2022-09-25T12:57:33;2.50;;;2.30;;
8291;SDS011;4184;42.724;23.308;2022-09-25T13:00:11;2.43;;;2.23;;
8291;SDS011;4184;42.724;23.308;2022-09-25T13:02:45;4.27;;;2.70;;
8291;SDS011;4184;42.724;23.308;2022-09-25T13:05:21;5.03;;;2.20;;
8291;SDS011;4184;42.724;23.308;2022-09-25T13:07:57;2.50;;;2.30;;
8291;SDS011;4184;42.724;23.308;2022-09-25T13:10:40;3.40;;;2.40;;
8291;SDS011;4184;42.724;23.308;2022-09-25T13:13:14;2.10;;;1.90;;
8291;SDS011;4184;42.724;23.308;2022-09-25T13:15:47;2.70;;;2.10;;
8291;SDS011;4184;42.724;23.308;2022-09-25T13:18:18;2.57;;;2.00;;
8291;SDS011;4184;42.724;23.308;2022-09-25T13:20:48;2.23;;;2.03;;
8291;SDS011;4184;42.724;23.308;2022-09-25T13:23:23;2.17;;;1.97;;
8291;SDS011;4184;42.724;23.308;2022-09-25T13:25:57;2.37;;;2.03;;
8291;SDS011;4184;42.724;23.308;2022-09-25T13:28:38;2.43;;;2.00;;
8291;SDS011;4184;42.724;23.308;2022-09-25T13:31:20;2.83;;;2.30;;
8291;SDS011;4184;42.724;23.308;2022-09-25T13:33:51;2.40;;;2.20;;
8291;SDS011;4184;42.724;23.308;2022-09-25T13:36:33;2.50;;;2.30;;
8291;SDS011;4184;42.724;23.308;2022-09-25T13:39:14;2.70;;;2.07;;
8291;SDS011;4184;42.724;23.308;2022-09-25T13:42:13;2.50;;;2.00;;
8291;SDS011;4184;42.724;23.308;2022-09-25T13:44:55;3.93;;;2.20;;
8291;SDS011;4184;42.724;23.308;2022-09-25T13:50:26;3.53;;;2.10;;
8291;SDS011;4184;42.724;23.308;2022-09-25T13:53:11;2.20;;;2.00;;
8291;SDS011;4184;42.724;23.308;2022-09-25T13:56:04;3.07;;;2.10;;
8291;SDS011;4184;42.724;23.308;2022-09-25T13:59:11;4.37;;;2.30;;
8291;SDS011;4184;42.724;23.308;2022-09-25T14:01:49;1.97;;;1.87;;
8291;SDS011;4184;42.724;23.308;2022-09-25T14:04:29;2.20;;;2.00;;
8291;SDS011;4184;42.724;23.308;2022-09-25T14:07:14;3.03;;;2.30;;
8291;SDS011;4184;42.724;23.308;2022-09-25T14:09:47;3.20;;;2.10;;
8291;SDS011;4184;42.724;23.308;2022-09-25T14:12:23;2.20;;;1.90;;
8291;SDS011;4184;42.724;23.308;2022-09-25T14:14:55;2.00;;;1.80;;
8291;SDS011;4184;42.724;23.308;2022-09-25T14:17:27;2.23;;;2.03;;
8291;SDS011;4184;42.724;23.308;2022-09-25T14:19:57;3.67;;;2.00;;
8291;SDS011;4184;42.724;23.308;2022-09-25T14:22:31;2.33;;;2.13;;
8291;SDS011;4184;42.724;23.308;2022-09-25T14:25:19;4.40;;;1.90;;
8291;SDS011;4184;42.724;23.308;2022-09-25T14:27:52;3.00;;;2.00;;
8291;SDS011;4184;42.724;23.308;2022-09-25T14:30:20;3.40;;;2.17;;
8291;SDS011;4184;42.724;23.308;2022-09-25T14:32:58;2.67;;;2.07;;
8291;SDS011;4184;42.724;23.308;2022-09-25T14:35:38;2.40;;;1.93;;
8291;SDS011;4184;42.724;23.308;2022-09-25T14:44:37;2.60;;;1.87;;
8291;SDS011;4184;42.724;23.308;2022-09-25T14:47:16;3.53;;;2.17;;
8291;SDS011;4184;42.724;23.308;2022-09-25T14:49:47;2.20;;;2.00;;
8291;SDS011;4184;42.724;23.308;2022-09-25T14:52:19;3.90;;;2.20;;
8291;SDS011;4184;42.724;23.308;2022-09-25T14:54:49;3.33;;;2.60;;
8291;SDS011;4184;42.724;23.308;2022-09-25T14:57:22;3.77;;;2.40;;
8291;SDS011;4184;42.724;23.308;2022-09-25T14:59:52;5.40;;;2.10;;
8291;SDS011;4184;42.724;23.308;2022-09-25T15:02:25;2.50;;;2.00;;
8291;SDS011;4184;42.724;23.308;2022-09-25T15:04:58;2.43;;;2.00;;
8291;SDS011;4184;42.724;23.308;2022-09-25T15:07:41;2.10;;;1.90;;
8291;SDS011;4184;42.724;23.308;2022-09-25T15:10:23;2.03;;;1.90;;
8291;SDS011;4184;42.724;23.308;2022-09-25T15:13:03;2.03;;;1.80;;
8291;SDS011;4184;42.724;23.308;2022-09-25T15:15:33;1.80;;;1.70;;
8291;SDS011;4184;42.724;23.308;2022-09-25T15:18:01;2.10;;;1.90;;
8291;SDS011;4184;42.724;23.308;2022-09-25T15:20:30;3.40;;;2.07;;
8291;SDS011;4184;42.724;23.308;2022-09-25T15:23:00;2.00;;;1.90;;
8291;SDS011;4184;42.724;23.308;2022-09-25T15:25:30;2.00;;;1.83;;
8291;SDS011;4184;42.724;23.308;2022-09-25T15:28:00;2.20;;;1.93;;
8291;SDS011;4184;42.724;23.308;2022-09-25T15:30:31;2.33;;;1.80;;
8291;SDS011;4184;42.724;23.308;2022-09-25T15:33:01;4.87;;;2.37;;
8291;SDS011;4184;42.724;23.308;2022-09-25T15:35:31;1.90;;;1.73;;
8291;SDS011;4184;42.724;23.308;2022-09-25T15:38:02;2.90;;;1.87;;
8291;SDS011;4184;42.724;23.308;2022-09-25T15:40:36;2.00;;;1.90;;
8291;SDS011;4184;42.724;23.308;2022-09-25T15:43:09;2.30;;;2.10;;
8291;SDS011;4184;42.724;23.308;2022-09-25T15:45:40;4.23;;;2.00;;